sensor_id;sensor_type;location;lat;lon;timestamp;P1;durP1;ratioP1;P2;durP2;ratioP2
30519;SDS011;17300;50.374;8.006;2023-10-13T00:01:08;5.13;;;4.07;;
30519;SDS011;17300;50.374;8.006;2023-10-13T00:03:36;4.93;;;4.50;;
30519;SDS011;17300;50.374;8.006;2023-10-13T00:06:05;4.60;;;4.20;;
30519;SDS011;17300;50.374;8.006;2023-10-13T00:08:33;5.03;;;4.03;;
30519;SDS011;17300;50.374;8.006;2023-10-13T00:11:01;4.13;;;3.73;;
30519;SDS011;17300;50.374;8.006;2023-10-13T00:13:31;4.33;;;3.70;;
30519;SDS011;17300;50.374;8.006;2023-10-13T00:16:07;4.70;;;3.93;;
30519;SDS011;17300;50.374;8.006;2023-10-13T00:18:35;5.00;;;4.20;;
30519;SDS011;17300;50.374;8.006;2023-10-13T00:21:06;4.53;;;3.73;;
30519;SDS011;17300;50.374;8.006;2023-10-13T00:23:38;5.00;;;4.07;;
30519;SDS011;17300;50.374;8.006;2023-10-13T00:26:08;5.63;;;4.53;;
30519;SDS011;17300;50.374;8.006;2023-10-13T00:28:37;4.93;;;4.17;;
30519;SDS011;17300;50.374;8.006;2023-10-13T00:31:11;4.53;;;4.13;;
30519;SDS011;17300;50.374;8.006;2023-10-13T00:33:37;4.60;;;4.20;;
30519;SDS011;17300;50.374;8.006;2023-10-13T00:36:06;4.50;;;4.07;;
30519;SDS011;17300;50.374;8.006;2023-10-13T00:38:33;5.57;;;4.57;;
30519;SDS011;17300;50.374;8.006;2023-10-13T00:41:02;5.73;;;4.00;;
30519;SDS011;17300;50.374;8.006;2023-10-13T00:43:45;4.67;;;4.27;;
30519;SDS011;17300;50.374;8.006;2023-10-13T00:46:29;4.37;;;3.97;;
30519;SDS011;17300;50.374;8.006;2023-10-13T00:48:58;4.93;;;4.33;;
30519;SDS011;17300;50.374;8.006;2023-10-13T00:51:26;5.30;;;4.53;;
30519;SDS011;17300;50.374;8.006;2023-10-13T00:53:57;4.97;;;3.93;;
30519;SDS011;17300;50.374;8.006;2023-10-13T00:56:27;4.67;;;4.03;;
30519;SDS011;17300;50.374;8.006;2023-10-13T00:58:54;6.07;;;4.13;;
30519;SDS011;17300;50.374;8.006;2023-10-13T01:01:23;4.90;;;3.87;;
30519;SDS011;17300;50.374;8.006;2023-10-13T01:03:56;5.57;;;4.40;;
30519;SDS011;17300;50.374;8.006;2023-10-13T01:06:24;5.40;;;4.07;;
30519;SDS011;17300;50.374;8.006;2023-10-13T01:08:56;5.30;;;4.13;;
30519;SDS011;17300;50.374;8.006;2023-10-13T01:11:36;5.77;;;4.63;;
30519;SDS011;17300;50.374;8.006;2023-10-13T01:14:03;5.07;;;3.90;;
30519;SDS011;17300;50.374;8.006;2023-10-13T01:16:31;4.53;;;4.13;;
30519;SDS011;17300;50.374;8.006;2023-10-13T01:18:57;5.33;;;4.30;;
30519;SDS011;17300;50.374;8.006;2023-10-13T01:21:25;4.57;;;4.17;;
30519;SDS011;17300;50.374;8.006;2023-10-13T01:23:55;5.73;;;3.93;;
30519;SDS011;17300;50.374;8.006;2023-10-13T01:26:20;4.33;;;3.97;;
30519;SDS011;17300;50.374;8.006;2023-10-13T01:28:49;4.10;;;3.80;;
30519;SDS011;17300;50.374;8.006;2023-10-13T01:31:16;4.60;;;4.10;;
30519;SDS011;17300;50.374;8.006;2023-10-13T01:33:50;4.73;;;3.87;;
30519;SDS011;17300;50.374;8.006;2023-10-13T01:36:19;4.70;;;4.30;;
30519;SDS011;17300;50.374;8.006;2023-10-13T01:38:46;5.70;;;3.90;;
30519;SDS011;17300;50.374;8.006;2023-10-13T01:41:14;4.70;;;4.30;;
30519;SDS011;17300;50.374;8.006;2023-10-13T01:43:40;4.90;;;4.07;;
30519;SDS011;17300;50.374;8.006;2023-10-13T01:46:07;4.97;;;4.07;;
30519;SDS011;17300;50.374;8.006;2023-10-13T01:48:34;4.80;;;4.40;;
30519;SDS011;17300;50.374;8.006;2023-10-13T01:51:04;4.63;;;4.23;;
30519;SDS011;17300;50.374;8.006;2023-10-13T01:53:33;6.57;;;4.10;;
30519;SDS011;17300;50.374;8.006;2023-10-13T01:56:07;6.03;;;4.40;;
30519;SDS011;17300;50.374;8.006;2023-10-13T01:58:38;4.53;;;4.10;;
30519;SDS011;17300;50.374;8.006;2023-10-13T02:01:07;4.87;;;4.17;;
30519;SDS011;17300;50.374;8.006;2023-10-13T02:03:34;4.33;;;3.93;;
30519;SDS011;17300;50.374;8.006;2023-10-13T02:06:06;4.73;;;4.33;;
30519;SDS011;17300;50.374;8.006;2023-10-13T02:08:35;6.10;;;4.10;;
30519;SDS011;17300;50.374;8.006;2023-10-13T02:11:05;4.43;;;3.60;;
30519;SDS011;17300;50.374;8.006;2023-10-13T02:13:32;4.70;;;4.10;;
30519;SDS011;17300;50.374;8.006;2023-10-13T02:16:07;4.20;;;3.63;;
30519;SDS011;17300;50.374;8.006;2023-10-13T02:18:34;4.87;;;4.10;;
30519;SDS011;17300;50.374;8.006;2023-10-13T02:21:06;4.67;;;3.80;;
30519;SDS011;17300;50.374;8.006;2023-10-13T02:23:38;5.47;;;4.40;;
30519;SDS011;17300;50.374;8.006;2023-10-13T02:26:09;4.77;;;4.13;;
30519;SDS011;17300;50.374;8.006;2023-10-13T02:28:37;4.13;;;3.67;;
30519;SDS011;17300;50.374;8.006;2023-10-13T02:31:04;4.07;;;3.27;;
30519;SDS011;17300;50.374;8.006;2023-10-13T02:33:33;4.23;;;3.90;;
30519;SDS011;17300;50.374;8.006;2023-10-13T02:36:09;3.80;;;3.50;;
30519;SDS011;17300;50.374;8.006;2023-10-13T02:38:37;6.33;;;3.77;;
30519;SDS011;17300;50.374;8.006;2023-10-13T02:41:11;4.17;;;3.50;;
30519;SDS011;17300;50.374;8.006;2023-10-13T02:43:37;4.13;;;3.30;;
30519;SDS011;17300;50.374;8.006;2023-10-13T02:46:04;4.63;;;3.60;;
30519;SDS011;17300;50.374;8.006;2023-10-13T02:48:30;3.70;;;3.40;;
30519;SDS011;17300;50.374;8.006;2023-10-13T02:51:06;4.23;;;3.83;;
30519;SDS011;17300;50.374;8.006;2023-10-13T02:53:40;4.10;;;3.30;;
30519;SDS011;17300;50.374;8.006;2023-10-13T02:56:07;4.40;;;4.00;;
30519;SDS011;17300;50.374;8.006;2023-10-13T02:58:33;3.67;;;3.37;;
30519;SDS011;17300;50.374;8.006;2023-10-13T03:01:05;5.17;;;3.50;;
30519;SDS011;17300;50.374;8.006;2023-10-13T03:03:41;3.73;;;3.43;;
30519;SDS011;17300;50.374;8.006;2023-10-13T03:06:13;4.50;;;3.57;;
30519;SDS011;17300;50.374;8.006;2023-10-13T03:08:39;3.97;;;3.57;;
30519;SDS011;17300;50.374;8.006;2023-10-13T03:11:08;5.17;;;3.60;;
30519;SDS011;17300;50.374;8.006;2023-10-13T03:13:34;3.60;;;3.30;;
30519;SDS011;17300;50.374;8.006;2023-10-13T03:16:02;4.63;;;3.57;;
30519;SDS011;17300;50.374;8.006;2023-10-13T03:18:36;4.30;;;3.90;;
30519;SDS011;17300;50.374;8.006;2023-10-13T03:21:03;3.60;;;3.30;;
30519;SDS011;17300;50.374;8.006;2023-10-13T03:23:34;4.00;;;3.60;;
30519;SDS011;17300;50.374;8.006;2023-10-13T03:26:12;4.40;;;3.23;;
30519;SDS011;17300;50.374;8.006;2023-10-13T03:28:42;4.70;;;3.60;;
30519;SDS011;17300;50.374;8.006;2023-10-13T03:31:11;4.13;;;3.73;;
30519;SDS011;17300;50.374;8.006;2023-10-13T03:33:43;4.57;;;3.57;;
30519;SDS011;17300;50.374;8.006;2023-10-13T03:36:11;3.97;;;3.67;;
30519;SDS011;17300;50.374;8.006;2023-10-13T03:38:59;3.70;;;3.40;;
30519;SDS011;17300;50.374;8.006;2023-10-13T03:41:25;3.77;;;3.27;;
30519;SDS011;17300;50.374;8.006;2023-10-13T03:43:55;7.33;;;3.80;;
30519;SDS011;17300;50.374;8.006;2023-10-13T03:46:34;4.57;;;3.50;;
30519;SDS011;17300;50.374;8.006;2023-10-13T03:49:01;4.17;;;3.77;;
30519;SDS011;17300;50.374;8.006;2023-10-13T03:51:31;5.30;;;3.43;;
30519;SDS011;17300;50.374;8.006;2023-10-13T03:53:59;3.33;;;3.03;;
30519;SDS011;17300;50.374;8.006;2023-10-13T03:56:32;3.73;;;3.40;;
30519;SDS011;17300;50.374;8.006;2023-10-13T03:59:05;3.87;;;3.47;;
30519;SDS011;17300;50.374;8.006;2023-10-13T04:01:35;4.47;;;3.40;;
30519;SDS011;17300;50.374;8.006;2023-10-13T04:04:11;3.83;;;3.50;;
30519;SDS011;17300;50.374;8.006;2023-10-13T04:06:40;4.33;;;3.80;;
30519;SDS011;17300;50.374;8.006;2023-10-13T04:09:18;5.00;;;3.30;;
30519;SDS011;17300;50.374;8.006;2023-10-13T04:12:04;4.07;;;3.47;;
30519;SDS011;17300;50.374;8.006;2023-10-13T04:15:00;4.30;;;3.00;;
30519;SDS011;17300;50.374;8.006;2023-10-13T04:17:47;4.07;;;3.20;;
30519;SDS011;17300;50.374;8.006;2023-10-13T04:20:15;6.03;;;3.30;;
30519;SDS011;17300;50.374;8.006;2023-10-13T04:22:58;3.23;;;2.90;;
30519;SDS011;17300;50.374;8.006;2023-10-13T04:25:52;4.83;;;3.50;;
30519;SDS011;17300;50.374;8.006;2023-10-13T04:28:33;3.30;;;3.00;;
30519;SDS011;17300;50.374;8.006;2023-10-13T04:31:17;5.43;;;3.50;;
30519;SDS011;17300;50.374;8.006;2023-10-13T04:34:06;3.50;;;3.20;;
30519;SDS011;17300;50.374;8.006;2023-10-13T04:36:40;3.70;;;3.40;;
30519;SDS011;17300;50.374;8.006;2023-10-13T04:39:11;3.80;;;3.50;;
30519;SDS011;17300;50.374;8.006;2023-10-13T04:41:43;3.73;;;3.43;;
30519;SDS011;17300;50.374;8.006;2023-10-13T04:44:22;3.40;;;3.10;;
30519;SDS011;17300;50.374;8.006;2023-10-13T04:47:13;4.87;;;3.33;;
30519;SDS011;17300;50.374;8.006;2023-10-13T04:49:46;3.40;;;3.10;;
30519;SDS011;17300;50.374;8.006;2023-10-13T04:52:17;3.57;;;3.27;;
30519;SDS011;17300;50.374;8.006;2023-10-13T04:55:16;3.83;;;3.30;;
30519;SDS011;17300;50.374;8.006;2023-10-13T04:57:50;3.77;;;3.20;;
30519;SDS011;17300;50.374;8.006;2023-10-13T05:00:25;4.37;;;3.33;;
30519;SDS011;17300;50.374;8.006;2023-10-13T05:03:09;3.30;;;3.00;;
30519;SDS011;17300;50.374;8.006;2023-10-13T05:05:53;3.60;;;3.30;;
30519;SDS011;17300;50.374;8.006;2023-10-13T05:08:34;3.63;;;3.30;;
30519;SDS011;17300;50.374;8.006;2023-10-13T05:11:18;4.20;;;3.47;;
30519;SDS011;17300;50.374;8.006;2023-10-13T05:14:15;4.67;;;4.20;;
30519;SDS011;17300;50.374;8.006;2023-10-13T05:16:59;3.77;;;3.47;;
30519;SDS011;17300;50.374;8.006;2023-10-13T05:19:43;3.97;;;3.53;;
30519;SDS011;17300;50.374;8.006;2023-10-13T05:22:27;4.07;;;3.60;;
30519;SDS011;17300;50.374;8.006;2023-10-13T05:25:11;4.17;;;3.70;;
30519;SDS011;17300;50.374;8.006;2023-10-13T05:27:55;5.10;;;4.03;;
30519;SDS011;17300;50.374;8.006;2023-10-13T05:30:41;5.90;;;3.93;;
30519;SDS011;17300;50.374;8.006;2023-10-13T05:33:25;4.27;;;3.97;;
30519;SDS011;17300;50.374;8.006;2023-10-13T05:36:10;4.40;;;3.63;;
30519;SDS011;17300;50.374;8.006;2023-10-13T05:38:54;4.10;;;3.57;;
30519;SDS011;17300;50.374;8.006;2023-10-13T05:41:38;4.50;;;4.10;;
30519;SDS011;17300;50.374;8.006;2023-10-13T05:44:22;4.87;;;4.07;;
30519;SDS011;17300;50.374;8.006;2023-10-13T05:47:13;4.10;;;3.80;;
30519;SDS011;17300;50.374;8.006;2023-10-13T05:50:11;3.63;;;3.33;;
30519;SDS011;17300;50.374;8.006;2023-10-13T05:52:54;3.60;;;3.30;;
30519;SDS011;17300;50.374;8.006;2023-10-13T05:55:39;3.70;;;3.40;;
30519;SDS011;17300;50.374;8.006;2023-10-13T05:58:23;4.73;;;3.40;;
30519;SDS011;17300;50.374;8.006;2023-10-13T06:01:11;3.40;;;3.10;;
30519;SDS011;17300;50.374;8.006;2023-10-13T06:03:57;3.03;;;2.80;;
30519;SDS011;17300;50.374;8.006;2023-10-13T06:06:53;4.60;;;3.50;;
30519;SDS011;17300;50.374;8.006;2023-10-13T06:09:39;4.10;;;3.37;;
30519;SDS011;17300;50.374;8.006;2023-10-13T06:12:23;4.13;;;3.40;;
30519;SDS011;17300;50.374;8.006;2023-10-13T06:15:07;3.57;;;3.27;;
30519;SDS011;17300;50.374;8.006;2023-10-13T06:18:03;3.50;;;3.20;;
30519;SDS011;17300;50.374;8.006;2023-10-13T06:20:49;5.20;;;3.53;;
30519;SDS011;17300;50.374;8.006;2023-10-13T06:23:33;3.80;;;3.30;;
30519;SDS011;17300;50.374;8.006;2023-10-13T06:26:17;3.93;;;3.63;;
30519;SDS011;17300;50.374;8.006;2023-10-13T06:29:02;3.80;;;3.50;;
30519;SDS011;17300;50.374;8.006;2023-10-13T06:31:32;4.00;;;3.60;;
30519;SDS011;17300;50.374;8.006;2023-10-13T06:33:59;3.93;;;3.57;;
30519;SDS011;17300;50.374;8.006;2023-10-13T06:36:29;3.90;;;3.57;;
30519;SDS011;17300;50.374;8.006;2023-10-13T06:38:58;4.37;;;3.80;;
30519;SDS011;17300;50.374;8.006;2023-10-13T06:41:38;3.97;;;3.67;;
30519;SDS011;17300;50.374;8.006;2023-10-13T06:44:05;4.30;;;3.90;;
30519;SDS011;17300;50.374;8.006;2023-10-13T06:46:40;4.13;;;3.83;;
30519;SDS011;17300;50.374;8.006;2023-10-13T06:49:06;4.63;;;4.23;;
30519;SDS011;17300;50.374;8.006;2023-10-13T06:51:36;6.83;;;4.73;;
30519;SDS011;17300;50.374;8.006;2023-10-13T06:54:04;4.23;;;3.93;;
30519;SDS011;17300;50.374;8.006;2023-10-13T06:56:35;4.80;;;4.33;;
30519;SDS011;17300;50.374;8.006;2023-10-13T06:59:04;4.60;;;4.13;;
30519;SDS011;17300;50.374;8.006;2023-10-13T07:01:31;4.40;;;4.00;;
30519;SDS011;17300;50.374;8.006;2023-10-13T07:04:03;5.20;;;4.07;;
30519;SDS011;17300;50.374;8.006;2023-10-13T07:06:39;4.60;;;4.20;;
30519;SDS011;17300;50.374;8.006;2023-10-13T07:09:12;4.60;;;4.20;;
30519;SDS011;17300;50.374;8.006;2023-10-13T07:12:01;4.50;;;4.10;;
30519;SDS011;17300;50.374;8.006;2023-10-13T07:14:31;4.03;;;3.73;;
30519;SDS011;17300;50.374;8.006;2023-10-13T07:17:00;6.87;;;3.80;;
30519;SDS011;17300;50.374;8.006;2023-10-13T07:19:29;4.77;;;4.13;;
30519;SDS011;17300;50.374;8.006;2023-10-13T07:21:57;4.10;;;3.80;;
30519;SDS011;17300;50.374;8.006;2023-10-13T07:24:28;3.80;;;3.50;;
30519;SDS011;17300;50.374;8.006;2023-10-13T07:26:56;4.03;;;3.63;;
30519;SDS011;17300;50.374;8.006;2023-10-13T07:29:28;4.00;;;3.67;;
30519;SDS011;17300;50.374;8.006;2023-10-13T07:31:55;4.30;;;3.90;;
30519;SDS011;17300;50.374;8.006;2023-10-13T07:34:23;3.90;;;3.60;;
30519;SDS011;17300;50.374;8.006;2023-10-13T07:36:51;3.93;;;3.57;;
30519;SDS011;17300;50.374;8.006;2023-10-13T07:39:25;3.70;;;3.40;;
30519;SDS011;17300;50.374;8.006;2023-10-13T07:41:54;4.00;;;3.60;;
30519;SDS011;17300;50.374;8.006;2023-10-13T07:44:28;3.87;;;3.47;;
30519;SDS011;17300;50.374;8.006;2023-10-13T07:46:58;4.30;;;3.50;;
30519;SDS011;17300;50.374;8.006;2023-10-13T07:49:28;6.00;;;4.30;;
30519;SDS011;17300;50.374;8.006;2023-10-13T07:51:57;4.87;;;4.47;;
30519;SDS011;17300;50.374;8.006;2023-10-13T07:54:30;4.80;;;4.40;;
30519;SDS011;17300;50.374;8.006;2023-10-13T07:56:56;5.10;;;4.63;;
30519;SDS011;17300;50.374;8.006;2023-10-13T07:59:23;5.20;;;4.70;;
30519;SDS011;17300;50.374;8.006;2023-10-13T08:01:50;4.90;;;4.40;;
30519;SDS011;17300;50.374;8.006;2023-10-13T08:04:37;4.67;;;4.27;;
30519;SDS011;17300;50.374;8.006;2023-10-13T08:07:04;5.20;;;4.40;;
30519;SDS011;17300;50.374;8.006;2023-10-13T08:09:40;4.10;;;3.80;;
30519;SDS011;17300;50.374;8.006;2023-10-13T08:12:08;4.40;;;4.00;;
30519;SDS011;17300;50.374;8.006;2023-10-13T08:14:37;5.40;;;4.10;;
30519;SDS011;17300;50.374;8.006;2023-10-13T08:17:07;5.23;;;4.27;;
30519;SDS011;17300;50.374;8.006;2023-10-13T08:19:34;4.57;;;4.13;;
30519;SDS011;17300;50.374;8.006;2023-10-13T08:22:07;4.00;;;3.67;;
30519;SDS011;17300;50.374;8.006;2023-10-13T08:24:50;4.20;;;3.90;;
30519;SDS011;17300;50.374;8.006;2023-10-13T08:27:37;4.88;;;3.78;;
30519;SDS011;17300;50.374;8.006;2023-10-13T08:30:14;4.15;;;3.65;;
30519;SDS011;17300;50.374;8.006;2023-10-13T08:32:54;4.00;;;3.70;;
30519;SDS011;17300;50.374;8.006;2023-10-13T08:35:22;4.50;;;4.10;;
30519;SDS011;17300;50.374;8.006;2023-10-13T08:37:58;4.38;;;3.92;;
30519;SDS011;17300;50.374;8.006;2023-10-13T08:40:30;4.38;;;3.95;;
30519;SDS011;17300;50.374;8.006;2023-10-13T08:43:21;4.38;;;3.97;;
30519;SDS011;17300;50.374;8.006;2023-10-13T08:46:05;4.40;;;3.78;;
30519;SDS011;17300;50.374;8.006;2023-10-13T08:48:33;3.90;;;3.50;;
30519;SDS011;17300;50.374;8.006;2023-10-13T08:51:02;4.68;;;4.20;;
30519;SDS011;17300;50.374;8.006;2023-10-13T08:53:35;3.75;;;3.42;;
30519;SDS011;17300;50.374;8.006;2023-10-13T08:56:12;4.25;;;3.30;;
30519;SDS011;17300;50.374;8.006;2023-10-13T08:58:57;4.45;;;3.47;;
30519;SDS011;17300;50.374;8.006;2023-10-13T09:01:31;5.18;;;4.03;;
30519;SDS011;17300;50.374;8.006;2023-10-13T09:04:02;4.38;;;3.40;;
30519;SDS011;17300;50.374;8.006;2023-10-13T09:06:43;5.45;;;3.50;;
30519;SDS011;17300;50.374;8.006;2023-10-13T09:09:13;4.07;;;3.17;;
30519;SDS011;17300;50.374;8.006;2023-10-13T09:11:53;3.97;;;3.58;;
30519;SDS011;17300;50.374;8.006;2023-10-13T09:14:32;5.30;;;3.95;;
30519;SDS011;17300;50.374;8.006;2023-10-13T09:17:04;4.38;;;3.90;;
30519;SDS011;17300;50.374;8.006;2023-10-13T09:19:43;5.43;;;4.22;;
30519;SDS011;17300;50.374;8.006;2023-10-13T09:22:19;4.50;;;3.70;;
30519;SDS011;17300;50.374;8.006;2023-10-13T09:24:51;4.53;;;3.88;;
30519;SDS011;17300;50.374;8.006;2023-10-13T09:27:20;4.95;;;3.60;;
30519;SDS011;17300;50.374;8.006;2023-10-13T09:29:55;5.05;;;3.80;;
30519;SDS011;17300;50.374;8.006;2023-10-13T09:32:21;4.50;;;4.10;;
30519;SDS011;17300;50.374;8.006;2023-10-13T09:34:48;5.38;;;4.05;;
30519;SDS011;17300;50.374;8.006;2023-10-13T09:37:15;4.43;;;4.00;;
30519;SDS011;17300;50.374;8.006;2023-10-13T09:39:46;4.35;;;3.40;;
30519;SDS011;17300;50.374;8.006;2023-10-13T09:42:16;4.35;;;3.90;;
30519;SDS011;17300;50.374;8.006;2023-10-13T09:44:45;3.67;;;3.38;;
30519;SDS011;17300;50.374;8.006;2023-10-13T09:47:21;4.88;;;3.70;;
30519;SDS011;17300;50.374;8.006;2023-10-13T09:49:55;4.07;;;3.67;;
30519;SDS011;17300;50.374;8.006;2023-10-13T09:52:38;4.35;;;3.40;;
30519;SDS011;17300;50.374;8.006;2023-10-13T09:55:10;4.38;;;3.60;;
30519;SDS011;17300;50.374;8.006;2023-10-13T09:57:43;4.70;;;3.75;;
30519;SDS011;17300;50.374;8.006;2023-10-13T10:00:15;5.40;;;3.83;;
30519;SDS011;17300;50.374;8.006;2023-10-13T10:03:08;4.93;;;4.00;;
30519;SDS011;17300;50.374;8.006;2023-10-13T10:05:55;3.85;;;3.53;;
30519;SDS011;17300;50.374;8.006;2023-10-13T10:08:28;4.70;;;3.65;;
30519;SDS011;17300;50.374;8.006;2023-10-13T10:11:06;4.38;;;3.67;;
30519;SDS011;17300;50.374;8.006;2023-10-13T10:13:43;4.80;;;4.07;;
30519;SDS011;17300;50.374;8.006;2023-10-13T10:16:26;4.20;;;3.80;;
30519;SDS011;17300;50.374;8.006;2023-10-13T10:19:02;3.95;;;3.53;;
30519;SDS011;17300;50.374;8.006;2023-10-13T10:21:33;4.28;;;3.88;;
30519;SDS011;17300;50.374;8.006;2023-10-13T10:24:00;4.55;;;3.75;;
30519;SDS011;17300;50.374;8.006;2023-10-13T10:26:30;4.45;;;4.03;;
30519;SDS011;17300;50.374;8.006;2023-10-13T10:28:57;4.03;;;3.65;;
30519;SDS011;17300;50.374;8.006;2023-10-13T10:31:32;4.82;;;4.43;;
30519;SDS011;17300;50.374;8.006;2023-10-13T10:34:10;4.30;;;3.97;;
30519;SDS011;17300;50.374;8.006;2023-10-13T10:36:37;4.07;;;3.75;;
30519;SDS011;17300;50.374;8.006;2023-10-13T10:39:07;4.78;;;4.20;;
30519;SDS011;17300;50.374;8.006;2023-10-13T10:41:37;4.70;;;4.22;;
30519;SDS011;17300;50.374;8.006;2023-10-13T10:44:10;4.60;;;4.18;;
30519;SDS011;17300;50.374;8.006;2023-10-13T10:46:47;4.18;;;3.78;;
30519;SDS011;17300;50.374;8.006;2023-10-13T10:49:22;4.82;;;4.43;;
30519;SDS011;17300;50.374;8.006;2023-10-13T10:51:56;5.22;;;4.00;;
30519;SDS011;17300;50.374;8.006;2023-10-13T10:54:29;4.65;;;4.13;;
30519;SDS011;17300;50.374;8.006;2023-10-13T10:56:56;4.75;;;4.35;;
30519;SDS011;17300;50.374;8.006;2023-10-13T10:59:35;4.57;;;4.03;;
30519;SDS011;17300;50.374;8.006;2023-10-13T11:02:04;4.85;;;4.38;;
30519;SDS011;17300;50.374;8.006;2023-10-13T11:04:33;4.47;;;4.07;;
30519;SDS011;17300;50.374;8.006;2023-10-13T11:07:05;4.80;;;4.38;;
30519;SDS011;17300;50.374;8.006;2023-10-13T11:09:33;5.22;;;4.20;;
30519;SDS011;17300;50.374;8.006;2023-10-13T11:12:11;5.13;;;4.20;;
30519;SDS011;17300;50.374;8.006;2023-10-13T11:14:49;4.35;;;4.05;;
30519;SDS011;17300;50.374;8.006;2023-10-13T11:17:27;4.90;;;4.47;;
30519;SDS011;17300;50.374;8.006;2023-10-13T11:20:10;4.40;;;3.92;;
30519;SDS011;17300;50.374;8.006;2023-10-13T11:22:41;4.13;;;3.83;;
30519;SDS011;17300;50.374;8.006;2023-10-13T11:25:22;4.30;;;3.83;;
30519;SDS011;17300;50.374;8.006;2023-10-13T11:27:55;4.40;;;4.00;;
30519;SDS011;17300;50.374;8.006;2023-10-13T11:30:23;4.75;;;4.32;;
30519;SDS011;17300;50.374;8.006;2023-10-13T11:32:59;4.45;;;4.00;;
30519;SDS011;17300;50.374;8.006;2023-10-13T11:35:30;4.18;;;3.88;;
30519;SDS011;17300;50.374;8.006;2023-10-13T11:38:14;5.07;;;4.30;;
30519;SDS011;17300;50.374;8.006;2023-10-13T11:40:50;4.25;;;3.85;;
30519;SDS011;17300;50.374;8.006;2023-10-13T11:43:32;5.00;;;4.22;;
30519;SDS011;17300;50.374;8.006;2023-10-13T11:46:09;4.47;;;4.07;;
30519;SDS011;17300;50.374;8.006;2023-10-13T11:48:39;5.25;;;4.65;;
30519;SDS011;17300;50.374;8.006;2023-10-13T11:51:07;5.45;;;4.32;;
30519;SDS011;17300;50.374;8.006;2023-10-13T11:53:42;4.30;;;3.97;;
30519;SDS011;17300;50.374;8.006;2023-10-13T11:56:09;4.22;;;3.80;;
30519;SDS011;17300;50.374;8.006;2023-10-13T11:58:36;4.10;;;3.80;;
30519;SDS011;17300;50.374;8.006;2023-10-13T12:01:04;4.28;;;3.88;;
30519;SDS011;17300;50.374;8.006;2023-10-13T12:03:47;4.20;;;3.88;;
30519;SDS011;17300;50.374;8.006;2023-10-13T12:06:32;4.50;;;4.10;;
30519;SDS011;17300;50.374;8.006;2023-10-13T12:09:12;5.43;;;3.80;;
30519;SDS011;17300;50.374;8.006;2023-10-13T12:11:59;4.55;;;4.15;;
30519;SDS011;17300;50.374;8.006;2023-10-13T12:14:27;4.45;;;4.10;;
30519;SDS011;17300;50.374;8.006;2023-10-13T12:16:54;4.45;;;4.05;;
30519;SDS011;17300;50.374;8.006;2023-10-13T12:19:29;4.95;;;4.45;;
30519;SDS011;17300;50.374;8.006;2023-10-13T12:21:57;6.28;;;5.75;;
30519;SDS011;17300;50.374;8.006;2023-10-13T12:24:29;5.72;;;5.25;;
30519;SDS011;17300;50.374;8.006;2023-10-13T12:27:05;4.88;;;4.40;;
30519;SDS011;17300;50.374;8.006;2023-10-13T12:29:43;4.22;;;3.92;;
30519;SDS011;17300;50.374;8.006;2023-10-13T12:32:11;4.57;;;3.92;;
30519;SDS011;17300;50.374;8.006;2023-10-13T12:34:40;4.35;;;3.92;;
30519;SDS011;17300;50.374;8.006;2023-10-13T12:37:25;4.50;;;3.75;;
30519;SDS011;17300;50.374;8.006;2023-10-13T12:40:15;4.95;;;4.10;;
30519;SDS011;17300;50.374;8.006;2023-10-13T12:43:00;4.45;;;4.03;;
30519;SDS011;17300;50.374;8.006;2023-10-13T12:45:45;3.92;;;3.60;;
30519;SDS011;17300;50.374;8.006;2023-10-13T12:48:30;4.38;;;3.97;;
30519;SDS011;17300;50.374;8.006;2023-10-13T12:51:17;4.43;;;4.03;;
30519;SDS011;17300;50.374;8.006;2023-10-13T12:53:46;4.18;;;3.88;;
30519;SDS011;17300;50.374;8.006;2023-10-13T12:56:14;4.25;;;3.85;;
30519;SDS011;17300;50.374;8.006;2023-10-13T12:58:41;4.05;;;3.75;;
30519;SDS011;17300;50.374;8.006;2023-10-13T13:01:16;4.28;;;3.88;;
30519;SDS011;17300;50.374;8.006;2023-10-13T13:03:45;4.20;;;3.80;;
30519;SDS011;17300;50.374;8.006;2023-10-13T13:06:16;4.55;;;3.85;;
30519;SDS011;17300;50.374;8.006;2023-10-13T13:08:43;4.50;;;4.10;;
30519;SDS011;17300;50.374;8.006;2023-10-13T13:11:11;5.03;;;3.58;;
30519;SDS011;17300;50.374;8.006;2023-10-13T13:13:38;5.32;;;4.32;;
30519;SDS011;17300;50.374;8.006;2023-10-13T13:16:04;5.13;;;4.07;;
30519;SDS011;17300;50.374;8.006;2023-10-13T13:18:32;4.05;;;3.72;;
30519;SDS011;17300;50.374;8.006;2023-10-13T13:20:59;4.30;;;3.90;;
30519;SDS011;17300;50.374;8.006;2023-10-13T13:23:28;4.00;;;3.60;;
30519;SDS011;17300;50.374;8.006;2023-10-13T13:25:56;4.70;;;4.28;;
30519;SDS011;17300;50.374;8.006;2023-10-13T13:28:23;4.78;;;4.13;;
30519;SDS011;17300;50.374;8.006;2023-10-13T13:30:49;4.20;;;3.80;;
30519;SDS011;17300;50.374;8.006;2023-10-13T13:33:19;4.65;;;4.10;;
30519;SDS011;17300;50.374;8.006;2023-10-13T13:35:52;4.55;;;3.67;;
30519;SDS011;17300;50.374;8.006;2023-10-13T13:38:19;4.05;;;3.40;;
30519;SDS011;17300;50.374;8.006;2023-10-13T13:40:53;4.00;;;3.70;;
30519;SDS011;17300;50.374;8.006;2023-10-13T13:43:20;4.47;;;3.70;;
30519;SDS011;17300;50.374;8.006;2023-10-13T13:46:03;4.30;;;3.70;;
30519;SDS011;17300;50.374;8.006;2023-10-13T13:48:34;4.97;;;3.88;;
30519;SDS011;17300;50.374;8.006;2023-10-13T13:51:02;4.70;;;3.70;;
30519;SDS011;17300;50.374;8.006;2023-10-13T13:53:31;3.92;;;3.58;;
30519;SDS011;17300;50.374;8.006;2023-10-13T13:56:01;5.85;;;3.90;;
30519;SDS011;17300;50.374;8.006;2023-10-13T13:58:28;6.25;;;4.20;;
30519;SDS011;17300;50.374;8.006;2023-10-13T14:00:59;4.38;;;3.45;;
30519;SDS011;17300;50.374;8.006;2023-10-13T14:03:36;4.38;;;3.97;;
30519;SDS011;17300;50.374;8.006;2023-10-13T14:06:10;4.57;;;3.45;;
30519;SDS011;17300;50.374;8.006;2023-10-13T14:08:42;4.57;;;3.30;;
30519;SDS011;17300;50.374;8.006;2023-10-13T14:11:11;4.47;;;3.20;;
30519;SDS011;17300;50.374;8.006;2023-10-13T14:14:08;4.63;;;3.67;;
30519;SDS011;17300;50.374;8.006;2023-10-13T14:16:39;4.22;;;3.83;;
30519;SDS011;17300;50.374;8.006;2023-10-13T14:19:10;4.13;;;3.72;;
30519;SDS011;17300;50.374;8.006;2023-10-13T14:21:37;5.40;;;3.50;;
30519;SDS011;17300;50.374;8.006;2023-10-13T14:24:04;3.92;;;3.60;;
30519;SDS011;17300;50.374;8.006;2023-10-13T14:26:39;4.53;;;4.03;;
30519;SDS011;17300;50.374;8.006;2023-10-13T14:29:08;4.78;;;4.00;;
30519;SDS011;17300;50.374;8.006;2023-10-13T14:31:39;4.30;;;3.90;;
30519;SDS011;17300;50.374;8.006;2023-10-13T14:34:06;4.55;;;3.40;;
30519;SDS011;17300;50.374;8.006;2023-10-13T14:36:33;4.50;;;3.33;;
30519;SDS011;17300;50.374;8.006;2023-10-13T14:39:00;4.18;;;3.58;;
30519;SDS011;17300;50.374;8.006;2023-10-13T14:41:28;3.58;;;3.28;;
30519;SDS011;17300;50.374;8.006;2023-10-13T14:43:57;4.00;;;3.15;;
30519;SDS011;17300;50.374;8.006;2023-10-13T14:46:30;4.90;;;3.75;;
30519;SDS011;17300;50.374;8.006;2023-10-13T14:49:00;4.38;;;3.30;;
30519;SDS011;17300;50.374;8.006;2023-10-13T14:51:27;4.93;;;3.33;;
30519;SDS011;17300;50.374;8.006;2023-10-13T14:53:54;3.47;;;3.17;;
30519;SDS011;17300;50.374;8.006;2023-10-13T14:56:23;3.75;;;3.35;;
30519;SDS011;17300;50.374;8.006;2023-10-13T14:58:50;5.00;;;3.42;;
30519;SDS011;17300;50.374;8.006;2023-10-13T15:01:19;3.65;;;3.17;;
30519;SDS011;17300;50.374;8.006;2023-10-13T15:03:48;3.75;;;3.45;;
30519;SDS011;17300;50.374;8.006;2023-10-13T15:06:17;4.15;;;3.67;;
30519;SDS011;17300;50.374;8.006;2023-10-13T15:08:45;5.47;;;3.75;;
30519;SDS011;17300;50.374;8.006;2023-10-13T15:11:12;3.60;;;3.30;;
30519;SDS011;17300;50.374;8.006;2023-10-13T15:13:39;3.75;;;3.33;;
30519;SDS011;17300;50.374;8.006;2023-10-13T15:16:13;5.78;;;3.40;;
30519;SDS011;17300;50.374;8.006;2023-10-13T15:18:43;3.67;;;3.35;;
30519;SDS011;17300;50.374;8.006;2023-10-13T15:21:10;3.50;;;3.20;;
30519;SDS011;17300;50.374;8.006;2023-10-13T15:23:38;3.50;;;3.17;;
30519;SDS011;17300;50.374;8.006;2023-10-13T15:26:08;3.80;;;3.20;;